createdAt,value
2023-04-16T00:00:35.378Z,101049.00
2023-04-16T00:02:59.359Z,101050.72
2023-04-16T00:05:23.579Z,101053.22
2023-04-16T00:07:47.264Z,101054.03
2023-04-16T00:10:12.692Z,101054.63
2023-04-16T00:12:36.571Z,101060.25
2023-04-16T00:15:00.194Z,101060.00
2023-04-16T00:17:23.947Z,101064.16
2023-04-16T00:19:47.530Z,101061.00
2023-04-16T00:22:11.098Z,101067.34
2023-04-16T00:24:34.692Z,101064.22
2023-04-16T00:26:59.814Z,101062.81
2023-04-16T00:29:23.400Z,101066.13
2023-04-16T00:31:47.010Z,101059.75
2023-04-16T00:34:10.924Z,101067.22
2023-04-16T00:36:35.218Z,101057.94
2023-04-16T00:38:58.973Z,101061.47
2023-04-16T00:41:23.122Z,101062.81
2023-04-16T00:43:48.354Z,101064.66
2023-04-16T00:46:12.029Z,101063.78
2023-04-16T00:48:36.430Z,101069.78
2023-04-16T00:51:01.707Z,101066.13
2023-04-16T00:53:25.788Z,101069.53
2023-04-16T00:55:49.939Z,101056.44
2023-04-16T00:58:13.687Z,101069.50
2023-04-16T01:00:39.494Z,101066.34
2023-04-16T01:03:03.314Z,101067.31
2023-04-16T01:05:28.117Z,101070.22
2023-04-16T01:07:53.298Z,101067.19
2023-04-16T01:10:16.943Z,101072.59
2023-04-16T01:12:40.528Z,101076.88
2023-04-16T01:15:04.360Z,101075.63
2023-04-16T01:17:29.390Z,101084.94
2023-04-16T01:19:53.008Z,101080.03
2023-04-16T01:22:18.161Z,101085.28
2023-04-16T01:24:41.800Z,101089.22
2023-04-16T01:27:07.251Z,101089.78
2023-04-16T01:29:30.980Z,101093.38
2023-04-16T01:31:55.847Z,101089.25
2023-04-16T01:34:25.564Z,101094.59
2023-04-16T01:36:49.133Z,101087.50
2023-04-16T01:39:15.570Z,101093.09
2023-04-16T01:41:39.472Z,101097.41
2023-04-16T01:44:03.083Z,101095.63
2023-04-16T01:46:30.065Z,101091.94
2023-04-16T01:48:54.757Z,101100.78
2023-04-16T01:51:18.326Z,101094.66
2023-04-16T01:53:42.034Z,101096.75
2023-04-16T01:56:08.364Z,101099.91
2023-04-16T01:58:33.496Z,101098.06
2023-04-16T02:00:57.310Z,101105.28
2023-04-16T02:03:21.598Z,101104.13
2023-04-16T02:05:45.535Z,101104.88
2023-04-16T02:08:09.169Z,101106.53
2023-04-16T02:10:32.739Z,101105.84
2023-04-16T02:12:57.770Z,101107.84
2023-04-16T02:15:21.570Z,101105.09
2023-04-16T02:17:46.555Z,101101.09
2023-04-16T02:20:11.918Z,101101.44
2023-04-16T02:22:43.884Z,101117.41
2023-04-16T02:25:10.993Z,101108.06
2023-04-16T02:27:34.886Z,101112.63
2023-04-16T02:30:13.521Z,101109.69
2023-04-16T02:32:37.480Z,101113.13
2023-04-16T02:35:03.978Z,101124.91
2023-04-16T02:37:27.622Z,101124.13
2023-04-16T02:39:51.491Z,101120.22
2023-04-16T02:42:16.255Z,101124.97
2023-04-16T02:44:39.897Z,101127.41
2023-04-16T02:47:05.015Z,101125.47
2023-04-16T02:49:28.586Z,101127.81
2023-04-16T02:51:52.245Z,101126.88
2023-04-16T02:54:15.999Z,101134.34
2023-04-16T02:56:39.718Z,101129.16
2023-04-16T02:59:03.255Z,101132.91
2023-04-16T03:01:28.557Z,101125.78
2023-04-16T03:03:53.629Z,101137.81
2023-04-16T03:06:17.272Z,101128.31
2023-04-16T03:08:40.830Z,101137.06
2023-04-16T03:11:04.476Z,101132.47
2023-04-16T03:13:28.075Z,101135.69
2023-04-16T03:15:51.830Z,101134.06
2023-04-16T03:18:15.417Z,101143.16
2023-04-16T03:20:40.556Z,101143.03
2023-04-16T03:23:04.151Z,101143.91
2023-04-16T03:25:27.730Z,101136.56
2023-04-16T03:27:51.523Z,101145.59
2023-04-16T03:30:16.442Z,101143.91
2023-04-16T03:32:40.720Z,101151.63
2023-04-16T03:35:04.755Z,101151.59
2023-04-16T03:37:29.676Z,101155.81
2023-04-16T03:39:53.610Z,101146.75
2023-04-16T03:42:17.180Z,101151.09
2023-04-16T03:44:40.941Z,101145.69
2023-04-16T03:47:05.915Z,101150.03
2023-04-16T03:49:29.549Z,101163.19
2023-04-16T03:51:54.288Z,101155.03
2023-04-16T03:54:20.764Z,101152.88
2023-04-16T03:56:52.082Z,101159.50
2023-04-16T03:59:15.790Z,101156.69
2023-04-16T04:01:41.210Z,101159.78
2023-04-16T04:04:05.244Z,101166.44
2023-04-16T04:06:29.057Z,101167.84
2023-04-16T04:08:52.691Z,101177.28
2023-04-16T04:11:17.732Z,101181.56
2023-04-16T04:13:41.511Z,101184.06
2023-04-16T04:16:06.880Z,101186.38
2023-04-16T04:18:30.557Z,101185.72
2023-04-16T04:20:54.129Z,101192.09
2023-04-16T04:23:21.246Z,101180.16
2023-04-16T04:25:45.589Z,101189.63
2023-04-16T04:28:10.889Z,101190.78
2023-04-16T04:30:36.308Z,101189.94
2023-04-16T04:33:00.066Z,101202.13
2023-04-16T04:35:23.876Z,101198.16
2023-04-16T04:37:47.843Z,101192.78
2023-04-16T04:40:15.302Z,101199.47
2023-04-16T04:42:39.554Z,101196.78
2023-04-16T04:45:04.624Z,101202.00
2023-04-16T04:47:30.137Z,101201.94
2023-04-16T04:49:53.736Z,101213.44
2023-04-16T04:52:17.412Z,101211.25
2023-04-16T04:54:41.707Z,101209.53
2023-04-16T04:57:05.714Z,101214.16
2023-04-16T04:59:29.684Z,101216.06
2023-04-16T05:01:54.842Z,101217.72
2023-04-16T05:04:18.571Z,101222.00
2023-04-16T05:06:42.179Z,101223.94
2023-04-16T05:09:05.749Z,101222.88
2023-04-16T05:11:29.379Z,101222.44
2023-04-16T05:13:52.953Z,101230.81
2023-04-16T05:16:16.565Z,101225.06
2023-04-16T05:18:41.503Z,101235.28
2023-04-16T05:21:05.741Z,101222.66
2023-04-16T05:23:29.977Z,101235.09
2023-04-16T05:25:53.564Z,101238.31
2023-04-16T05:28:17.071Z,101242.34
2023-04-16T05:30:40.722Z,101243.97
2023-04-16T05:33:04.234Z,101240.47
2023-04-16T05:35:29.270Z,101245.63
2023-04-16T05:37:52.797Z,101248.31
2023-04-16T05:40:16.757Z,101245.72
2023-04-16T05:42:40.273Z,101253.38
2023-04-16T05:45:05.356Z,101251.63
2023-04-16T05:47:28.944Z,101257.19
2023-04-16T05:49:52.606Z,101253.63
2023-04-16T05:52:17.537Z,101261.59
2023-04-16T05:54:41.153Z,101255.78
2023-04-16T05:57:05.078Z,101253.00
2023-04-16T05:59:29.323Z,101261.47
2023-04-16T06:01:53.003Z,101261.03
2023-04-16T06:04:16.721Z,101267.28
2023-04-16T06:06:40.629Z,101266.91
2023-04-16T06:09:05.838Z,101274.28
2023-04-16T06:11:30.855Z,101268.56
2023-04-16T06:13:54.548Z,101274.13
2023-04-16T06:16:18.314Z,101280.34
2023-04-16T06:18:42.346Z,101278.38
2023-04-16T06:21:06.004Z,101277.69
2023-04-16T06:23:29.724Z,101279.69
2023-04-16T06:25:54.640Z,101282.69
2023-04-16T06:28:18.252Z,101289.03
2023-04-16T06:30:43.989Z,101288.06
2023-04-16T06:33:08.282Z,101293.81
2023-04-16T06:35:31.852Z,101300.31
2023-04-16T06:37:55.624Z,101295.75
2023-04-16T06:40:19.309Z,101293.38
2023-04-16T06:42:45.508Z,101300.47
2023-04-16T06:45:10.934Z,101302.44
2023-04-16T06:47:34.617Z,101298.16
2023-04-16T06:49:58.174Z,101304.41
2023-04-16T06:52:21.855Z,101304.31
2023-04-16T06:54:45.452Z,101305.28
2023-04-16T06:57:09.168Z,101306.97
2023-04-16T06:59:34.323Z,101308.69
2023-04-16T07:01:58.593Z,101308.84
2023-04-16T07:04:22.357Z,101310.63
2023-04-16T07:06:46.170Z,101316.00
2023-04-16T07:09:09.857Z,101312.53
2023-04-16T07:11:33.695Z,101313.09
2023-04-16T07:13:57.823Z,101313.69
2023-04-16T07:16:22.814Z,101314.22
2023-04-16T07:18:46.407Z,101321.22
2023-04-16T07:21:09.996Z,101317.84
2023-04-16T07:23:33.598Z,101323.91
2023-04-16T07:25:57.197Z,101333.25
2023-04-16T07:28:20.756Z,101331.78
2023-04-16T07:30:44.657Z,101334.84
2023-04-16T07:33:09.667Z,101342.06
2023-04-16T07:35:33.946Z,101341.75
2023-04-16T07:37:57.562Z,101342.47
2023-04-16T07:40:21.555Z,101343.47
2023-04-16T07:42:45.171Z,101347.03
2023-04-16T07:45:10.398Z,101349.69
2023-04-16T07:47:33.997Z,101342.81
2023-04-16T07:49:59.335Z,101351.31
2023-04-16T07:52:23.012Z,101348.09
2023-04-16T07:54:47.149Z,101344.59
2023-04-16T07:57:11.597Z,101356.09
2023-04-16T07:59:35.241Z,101353.16
2023-04-16T08:01:58.797Z,101359.97
2023-04-16T08:04:25.340Z,101359.09
2023-04-16T08:06:50.524Z,101359.75
2023-04-16T08:09:14.127Z,101359.31
2023-04-16T08:11:37.702Z,101369.44
2023-04-16T08:14:01.375Z,101369.13
2023-04-16T08:16:25.087Z,101362.50
2023-04-16T08:18:48.777Z,101371.16
2023-04-16T08:21:12.886Z,101367.81
2023-04-16T08:23:37.948Z,101376.72
2023-04-16T08:26:02.545Z,101377.31
2023-04-16T08:28:26.298Z,101376.91
2023-04-16T08:30:49.822Z,101379.66
2023-04-16T08:33:14.186Z,101383.81
2023-04-16T08:35:37.742Z,101388.50
2023-04-16T08:38:02.469Z,101389.31
2023-04-16T08:40:30.659Z,101388.09
2023-04-16T08:42:56.884Z,101385.19
2023-04-16T08:45:20.974Z,101392.00
2023-04-16T08:47:48.562Z,101395.00
2023-04-16T08:50:16.014Z,101406.03
2023-04-16T08:52:46.466Z,101404.19
2023-04-16T08:55:15.149Z,101403.13
2023-04-16T08:57:46.199Z,101404.47
2023-04-16T09:00:11.333Z,101413.22
2023-04-16T09:02:35.889Z,101406.13
2023-04-16T09:05:01.476Z,101412.13
2023-04-16T09:07:27.207Z,101418.47
2023-04-16T09:09:53.133Z,101424.63
2023-04-16T09:12:16.804Z,101420.03
2023-04-16T09:14:43.392Z,101425.72
2023-04-16T09:17:08.363Z,101427.06
2023-04-16T09:19:31.987Z,101432.19
2023-04-16T09:21:55.681Z,101422.91
2023-04-16T09:24:19.881Z,101425.44
2023-04-16T09:26:44.560Z,101425.41
2023-04-16T09:29:09.879Z,101426.25
2023-04-16T09:31:35.105Z,101425.19
2023-04-16T09:34:07.790Z,101432.38
2023-04-16T09:36:32.534Z,101423.91
2023-04-16T09:38:58.036Z,101431.97
2023-04-16T09:41:27.248Z,101436.00
2023-04-16T09:43:58.129Z,101438.31
2023-04-16T09:46:21.848Z,101435.81
2023-04-16T09:48:48.090Z,101437.38
2023-04-16T09:51:11.688Z,101444.75
2023-04-16T09:53:35.303Z,101442.41
2023-04-16T09:55:59.242Z,101448.47
2023-04-16T09:58:22.987Z,101447.97
2023-04-16T10:00:46.746Z,101444.06
2023-04-16T10:03:10.816Z,101451.38
2023-04-16T10:05:36.637Z,101453.28
2023-04-16T10:08:02.407Z,101454.38
2023-04-16T10:10:26.359Z,101456.50
2023-04-16T10:12:49.913Z,101453.84
2023-04-16T10:15:13.536Z,101451.44
2023-04-16T10:17:37.580Z,101449.69
2023-04-16T10:20:03.199Z,101456.75
2023-04-16T10:22:28.189Z,101458.22
2023-04-16T10:24:52.633Z,101458.28
2023-04-16T10:27:16.628Z,101455.09
2023-04-16T10:29:40.885Z,101462.41
2023-04-16T10:32:05.746Z,101457.16
2023-04-16T10:34:31.271Z,101455.56
2023-04-16T10:36:56.110Z,101454.88
2023-04-16T10:39:23.317Z,101459.91
2023-04-16T10:41:47.155Z,101461.53
2023-04-16T10:44:12.411Z,101467.38
2023-04-16T10:46:39.682Z,101466.06
2023-04-16T10:49:15.374Z,101455.38
2023-04-16T10:51:39.037Z,101457.84
2023-04-16T10:54:20.621Z,101463.00
2023-04-16T10:56:47.709Z,101464.50
2023-04-16T10:59:12.647Z,101470.34
2023-04-16T11:01:38.793Z,101463.72
2023-04-16T11:04:03.742Z,101469.91
2023-04-16T11:06:29.623Z,101474.16
2023-04-16T11:08:55.410Z,101476.88
2023-04-16T11:11:20.222Z,101476.97
2023-04-16T11:13:47.257Z,101479.94
2023-04-16T11:16:11.582Z,101481.63
2023-04-16T11:18:35.776Z,101480.66
2023-04-16T11:21:10.791Z,101476.25
2023-04-16T11:23:48.830Z,101479.56
2023-04-16T11:26:26.123Z,101487.03
2023-04-16T11:28:51.645Z,101483.47
2023-04-16T11:31:15.201Z,101486.28
2023-04-16T11:33:39.917Z,101483.22
2023-04-16T11:36:03.438Z,101485.66
2023-04-16T11:38:36.543Z,101481.88
2023-04-16T11:41:00.183Z,101495.59
2023-04-16T11:43:23.710Z,101496.47
2023-04-16T11:45:59.468Z,101496.44
2023-04-16T11:48:23.124Z,101500.22
2023-04-16T11:50:57.460Z,101504.66
2023-04-16T11:53:21.306Z,101511.22
2023-04-16T11:55:46.009Z,101509.22
2023-04-16T11:58:15.907Z,101502.94
2023-04-16T12:00:40.123Z,101510.75
2023-04-16T12:03:05.401Z,101507.69
2023-04-16T12:05:31.987Z,101511.75
2023-04-16T12:07:55.600Z,101512.84
2023-04-16T12:10:19.261Z,101514.06
2023-04-16T12:12:44.080Z,101520.09
2023-04-16T12:15:08.968Z,101517.38
2023-04-16T12:17:33.546Z,101519.94
2023-04-16T12:20:00.444Z,101518.63
2023-04-16T12:22:33.622Z,101512.88
2023-04-16T12:25:00.970Z,101513.66
2023-04-16T12:27:28.536Z,101521.38
2023-04-16T12:30:07.254Z,101520.44
2023-04-16T12:32:30.856Z,101527.78
2023-04-16T12:34:54.368Z,101525.81
2023-04-16T12:37:19.413Z,101529.03
2023-04-16T12:39:42.911Z,101535.78
2023-04-16T12:42:09.872Z,101534.72
2023-04-16T12:44:33.541Z,101529.13
2023-04-16T12:46:57.113Z,101530.72
2023-04-16T12:49:20.727Z,101531.53
2023-04-16T12:51:44.626Z,101524.78
2023-04-16T12:54:09.786Z,101525.41
2023-04-16T12:56:34.337Z,101515.25
2023-04-16T12:58:57.964Z,101526.25
2023-04-16T13:01:21.964Z,101533.47
2023-04-16T13:03:45.668Z,101531.56
2023-04-16T13:06:10.096Z,101527.94
2023-04-16T13:08:33.645Z,101524.50
2023-04-16T13:10:58.607Z,101527.63
2023-04-16T13:13:22.198Z,101529.25
2023-04-16T13:15:45.962Z,101528.38
2023-04-16T13:18:09.519Z,101526.47
2023-04-16T13:20:34.462Z,101536.78
2023-04-16T13:22:58.448Z,101534.69
2023-04-16T13:25:22.058Z,101537.16
2023-04-16T13:27:47.015Z,101547.69
2023-04-16T13:30:11.746Z,101537.50
2023-04-16T13:32:35.488Z,101536.34
2023-04-16T13:34:59.069Z,101533.75
2023-04-16T13:37:22.597Z,101543.66
2023-04-16T13:39:46.536Z,101540.03
2023-04-16T13:42:10.087Z,101533.66
2023-04-16T13:44:35.120Z,101541.84
2023-04-16T13:46:58.862Z,101535.94
2023-04-16T13:49:22.724Z,101536.09
2023-04-16T13:51:46.281Z,101536.78
2023-04-16T13:54:09.837Z,101538.78
2023-04-16T13:56:33.478Z,101539.28
2023-04-16T13:58:57.115Z,101543.47
2023-04-16T14:01:22.259Z,101536.06
2023-04-16T14:03:46.146Z,101541.69
2023-04-16T14:06:09.757Z,101539.69
2023-04-16T14:08:33.743Z,101540.25
2023-04-16T14:10:57.889Z,101540.50
2023-04-16T14:13:22.016Z,101530.66
2023-04-16T14:15:45.619Z,101535.06
2023-04-16T14:18:10.727Z,101535.78
2023-04-16T14:20:34.224Z,101537.84
2023-04-16T14:22:57.788Z,101537.97
2023-04-16T14:25:21.390Z,101543.03
2023-04-16T14:27:44.982Z,101541.41
2023-04-16T14:30:10.098Z,101544.09
2023-04-16T14:32:33.834Z,101540.44
2023-04-16T14:34:58.862Z,101552.59
2023-04-16T14:37:22.468Z,101544.75
2023-04-16T14:39:46.164Z,101551.34
2023-04-16T14:42:09.767Z,101548.66
2023-04-16T14:44:33.449Z,101543.28
2023-04-16T14:46:57.048Z,101547.78
2023-04-16T14:49:20.791Z,101546.59
2023-04-16T14:51:47.397Z,101551.22
2023-04-16T14:54:11.464Z,101551.56
2023-04-16T14:56:35.764Z,101556.56
2023-04-16T14:58:59.327Z,101558.13
2023-04-16T15:01:23.060Z,101551.97
2023-04-16T15:03:46.721Z,101560.78
2023-04-16T15:06:11.477Z,101560.56
2023-04-16T15:08:36.625Z,101564.34
2023-04-16T15:11:00.285Z,101566.75
2023-04-16T15:13:23.951Z,101560.81
2023-04-16T15:15:47.609Z,101567.78
2023-04-16T15:18:11.445Z,101571.56
2023-04-16T15:20:35.772Z,101564.97
2023-04-16T15:22:59.337Z,101570.63
2023-04-16T15:25:25.534Z,101569.81
2023-04-16T15:27:49.149Z,101568.41
2023-04-16T15:30:13.798Z,101573.75
2023-04-16T15:32:37.414Z,101567.88
2023-04-16T15:35:01.040Z,101572.78
2023-04-16T15:37:25.045Z,101580.16
2023-04-16T15:39:48.590Z,101576.38
2023-04-16T15:42:13.740Z,101579.81
2023-04-16T15:44:37.365Z,101582.22
2023-04-16T15:47:01.456Z,101585.09
2023-04-16T15:49:25.539Z,101584.88
2023-04-16T15:51:49.170Z,101583.78
2023-04-16T15:54:12.778Z,101584.47
2023-04-16T15:56:36.302Z,101585.09
2023-04-16T15:59:01.292Z,101593.16
2023-04-16T16:01:24.872Z,101596.56
2023-04-16T16:03:48.733Z,101602.56
2023-04-16T16:06:13.407Z,101595.63
2023-04-16T16:08:38.391Z,101608.28
2023-04-16T16:11:02.064Z,101606.16
2023-04-16T16:13:25.907Z,101615.03
2023-04-16T16:15:50.986Z,101611.66
2023-04-16T16:18:14.791Z,101605.94
2023-04-16T16:20:38.921Z,101615.25
2023-04-16T16:23:02.695Z,101620.88
2023-04-16T16:25:26.279Z,101618.22
2023-04-16T16:27:50.025Z,101622.88
2023-04-16T16:30:14.891Z,101625.19
2023-04-16T16:32:41.071Z,101619.25
2023-04-16T16:35:05.075Z,101629.25
2023-04-16T16:37:29.813Z,101626.59
2023-04-16T16:39:53.355Z,101633.84
2023-04-16T16:42:18.929Z,101637.28
2023-04-16T16:44:42.511Z,101632.16
2023-04-16T16:47:06.557Z,101637.53
2023-04-16T16:49:31.635Z,101634.84
2023-04-16T16:51:55.192Z,101636.50
2023-04-16T16:54:18.743Z,101638.19
2023-04-16T16:56:42.572Z,101636.09
2023-04-16T16:59:06.181Z,101646.84
2023-04-16T17:01:31.262Z,101647.03
2023-04-16T17:03:55.283Z,101651.06
2023-04-16T17:06:22.265Z,101655.25
2023-04-16T17:08:45.923Z,101648.13
2023-04-16T17:11:09.689Z,101655.56
2023-04-16T17:13:34.729Z,101652.03
2023-04-16T17:15:58.418Z,101656.97
2023-04-16T17:18:21.980Z,101653.97
2023-04-16T17:20:45.595Z,101661.59
2023-04-16T17:23:10.510Z,101662.34
2023-04-16T17:25:34.769Z,101669.13
2023-04-16T17:27:58.359Z,101671.19
2023-04-16T17:30:23.724Z,101674.16
2023-04-16T17:32:47.387Z,101671.78
2023-04-16T17:35:12.913Z,101668.03
2023-04-16T17:37:36.441Z,101671.19
2023-04-16T17:40:01.457Z,101674.81
2023-04-16T17:42:25.484Z,101682.03
2023-04-16T17:44:49.317Z,101683.19
2023-04-16T17:47:12.876Z,101687.06
2023-04-16T17:49:36.509Z,101687.50
2023-04-16T17:52:00.098Z,101693.22
2023-04-16T17:54:23.719Z,101693.50
2023-04-16T17:56:48.693Z,101699.22
2023-04-16T17:59:12.322Z,101698.69
2023-04-16T18:01:36.046Z,101701.72
2023-04-16T18:03:59.916Z,101700.41
2023-04-16T18:06:23.566Z,101711.16
2023-04-16T18:08:47.303Z,101708.91
2023-04-16T18:11:10.867Z,101712.44
2023-04-16T18:13:35.854Z,101718.47
2023-04-16T18:15:59.517Z,101722.19
2023-04-16T18:18:23.105Z,101720.91
2023-04-16T18:20:46.608Z,101725.75
2023-04-16T18:23:10.367Z,101724.19
2023-04-16T18:25:35.248Z,101734.16
2023-04-16T18:27:59.440Z,101731.03
2023-04-16T18:30:26.620Z,101732.94
2023-04-16T18:33:16.612Z,101736.28
2023-04-16T18:35:34.389Z,101739.53
2023-04-16T18:37:57.889Z,101749.25
2023-04-16T18:40:21.682Z,101742.06
2023-04-16T18:42:45.564Z,101748.22
2023-04-16T18:45:19.566Z,101751.75
2023-04-16T18:47:47.529Z,101748.06
2023-04-16T18:50:11.434Z,101752.91
2023-04-16T18:52:35.123Z,101761.75
2023-04-16T18:54:58.652Z,101763.13
2023-04-16T18:57:22.308Z,101762.94
2023-04-16T18:59:45.852Z,101762.09
2023-04-16T19:02:10.085Z,101769.59
2023-04-16T19:04:35.091Z,101764.38
2023-04-16T19:06:58.710Z,101769.66
2023-04-16T19:09:22.303Z,101777.81
2023-04-16T19:11:45.998Z,101772.78
2023-04-16T19:14:09.882Z,101775.28
2023-04-16T19:16:33.714Z,101774.47
2023-04-16T19:18:57.794Z,101779.59
2023-04-16T19:21:22.827Z,101776.13
2023-04-16T19:23:46.462Z,101780.56
2023-04-16T19:26:10.112Z,101781.47
2023-04-16T19:28:33.660Z,101776.25
2023-04-16T19:30:57.635Z,101782.84
2023-04-16T19:33:21.435Z,101790.56
2023-04-16T19:35:45.065Z,101788.13
2023-04-16T19:38:10.960Z,101796.22
2023-04-16T19:40:34.805Z,101783.91
2023-04-16T19:42:58.378Z,101792.00
2023-04-16T19:45:25.755Z,101792.22
2023-04-16T19:47:51.262Z,101792.50
2023-04-16T19:50:14.932Z,101790.88
2023-04-16T19:52:39.095Z,101798.06
2023-04-16T19:55:04.461Z,101796.44
2023-04-16T19:57:28.009Z,101794.50
2023-04-16T19:59:52.523Z,101794.50
2023-04-16T20:02:17.645Z,101795.88
2023-04-16T20:04:41.266Z,101797.97
2023-04-16T20:07:04.793Z,101792.59
2023-04-16T20:09:28.491Z,101802.59
2023-04-16T20:11:53.440Z,101802.28
2023-04-16T20:14:17.283Z,101799.53
2023-04-16T20:16:40.991Z,101803.34
2023-04-16T20:19:05.853Z,101807.38
2023-04-16T20:21:31.725Z,101809.59
2023-04-16T20:23:55.931Z,101809.00
2023-04-16T20:26:19.709Z,101807.25
2023-04-16T20:28:44.878Z,101805.28
2023-04-16T20:31:08.522Z,101804.63
2023-04-16T20:33:32.347Z,101804.50
2023-04-16T20:35:56.347Z,101817.03
2023-04-16T20:38:23.809Z,101812.94
2023-04-16T20:40:47.503Z,101820.78
2023-04-16T20:43:14.248Z,101815.41
2023-04-16T20:45:41.021Z,101821.75
2023-04-16T20:48:05.110Z,101825.69
2023-04-16T20:50:28.904Z,101814.06
2023-04-16T20:52:52.866Z,101822.09
2023-04-16T20:55:16.747Z,101815.13
2023-04-16T20:57:40.634Z,101821.03
2023-04-16T21:00:09.225Z,101820.00
2023-04-16T21:02:34.464Z,101825.75
2023-04-16T21:04:58.144Z,101822.66
2023-04-16T21:07:21.823Z,101822.09
2023-04-16T21:09:45.560Z,101821.25
2023-04-16T21:12:09.520Z,101821.53
2023-04-16T21:14:33.119Z,101830.06
2023-04-16T21:16:56.875Z,101826.81
2023-04-16T21:19:22.489Z,101821.13
2023-04-16T21:21:46.202Z,101824.84
2023-04-16T21:24:10.023Z,101833.31
2023-04-16T21:26:33.761Z,101826.84
2023-04-16T21:28:58.111Z,101821.97
2023-04-16T21:31:22.103Z,101829.78
2023-04-16T21:33:46.096Z,101825.81
2023-04-16T21:36:14.385Z,101832.34
2023-04-16T21:38:38.528Z,101827.69
2023-04-16T21:41:03.343Z,101826.28
2023-04-16T21:43:29.009Z,101820.28
2023-04-16T21:45:54.138Z,101831.38
2023-04-16T21:48:18.523Z,101827.91
2023-04-16T21:50:42.372Z,101830.84
2023-04-16T21:53:08.626Z,101830.25
2023-04-16T21:55:32.874Z,101826.13
2023-04-16T21:57:56.727Z,101838.47
2023-04-16T22:00:21.315Z,101834.03
2023-04-16T22:02:45.158Z,101840.34
2023-04-16T22:05:10.803Z,101825.63
2023-04-16T22:07:34.365Z,101834.44
2023-04-16T22:09:59.961Z,101833.91
2023-04-16T22:12:23.501Z,101835.38
2023-04-16T22:14:59.651Z,101835.63
2023-04-16T22:17:28.033Z,101841.09
2023-04-16T22:19:53.475Z,101838.47
2023-04-16T22:22:17.420Z,101840.56
2023-04-16T22:24:41.396Z,101844.78
2023-04-16T22:27:06.766Z,101842.47
2023-04-16T22:29:30.669Z,101844.66
2023-04-16T22:31:55.154Z,101844.03
2023-04-16T22:34:19.633Z,101850.00
2023-04-16T22:36:43.332Z,101848.16
2023-04-16T22:39:08.717Z,101846.38
2023-04-16T22:41:32.664Z,101849.25
2023-04-16T22:43:58.372Z,101846.53
2023-04-16T22:46:22.409Z,101850.44
2023-04-16T22:48:46.276Z,101845.09
2023-04-16T22:51:10.890Z,101848.13
2023-04-16T22:53:34.578Z,101844.66
2023-04-16T22:55:58.449Z,101845.75
2023-04-16T22:58:22.307Z,101850.69
2023-04-16T23:00:47.888Z,101849.50
2023-04-16T23:03:11.746Z,101846.97
2023-04-16T23:05:35.677Z,101847.78
2023-04-16T23:07:59.192Z,101836.28
2023-04-16T23:10:22.798Z,101832.97
2023-04-16T23:12:46.465Z,101839.75
2023-04-16T23:15:11.124Z,101835.16
2023-04-16T23:17:36.117Z,101847.94
2023-04-16T23:19:59.866Z,101849.84
2023-04-16T23:22:23.404Z,101847.25
2023-04-16T23:24:46.992Z,101858.84
2023-04-16T23:27:10.722Z,101849.22
2023-04-16T23:29:34.335Z,101846.28
2023-04-16T23:31:58.423Z,101846.56
2023-04-16T23:34:23.447Z,101853.38
2023-04-16T23:36:47.154Z,101849.47
2023-04-16T23:39:11.088Z,101844.72
2023-04-16T23:41:34.741Z,101849.72
2023-04-16T23:43:59.061Z,101849.13
2023-04-16T23:46:22.752Z,101851.91
2023-04-16T23:48:46.405Z,101857.00
2023-04-16T23:51:11.383Z,101853.72
2023-04-16T23:53:36.356Z,101855.38
2023-04-16T23:55:59.889Z,101855.03
2023-04-16T23:58:23.477Z,101851.50
